createdAt,value
2019-06-25T00:00:54.833Z,28.52
2019-06-25T00:01:59.796Z,28.51
2019-06-25T00:03:05.657Z,28.50
2019-06-25T00:04:10.606Z,28.49
2019-06-25T00:05:20.086Z,28.47
2019-06-25T00:06:25.461Z,28.45
2019-06-25T00:07:31.023Z,28.45
2019-06-25T00:08:36.249Z,28.44
2019-06-25T00:09:41.935Z,28.43
2019-06-25T00:10:46.938Z,28.41
2019-06-25T00:11:52.563Z,28.35
2019-06-25T00:12:57.628Z,28.36
2019-06-25T00:14:03.315Z,28.38
2019-06-25T00:15:08.535Z,28.37
2019-06-25T00:16:14.379Z,28.36
2019-06-25T00:17:19.612Z,28.30
2019-06-25T00:18:25.103Z,28.30
2019-06-25T00:19:30.093Z,28.31
2019-06-25T00:20:35.852Z,28.30
2019-06-25T00:21:40.807Z,28.29
2019-06-25T00:22:46.304Z,28.28
2019-06-25T00:23:51.661Z,28.27
2019-06-25T00:24:57.147Z,28.26
2019-06-25T00:26:02.089Z,28.19
2019-06-25T00:27:07.728Z,28.22
2019-06-25T00:28:12.640Z,28.21
2019-06-25T00:29:18.285Z,28.20
2019-06-25T00:30:23.378Z,28.20
2019-06-25T00:31:29.006Z,28.16
2019-06-25T00:32:34.300Z,28.16
2019-06-25T00:33:39.810Z,28.16
2019-06-25T00:34:44.967Z,28.14
2019-06-25T00:35:50.627Z,28.07
2019-06-25T00:36:55.626Z,28.11
2019-06-25T00:38:01.204Z,28.11
2019-06-25T00:39:07.141Z,28.10
2019-06-25T00:40:13.137Z,28.02
2019-06-25T00:41:18.148Z,28.02
2019-06-25T00:42:24.051Z,28.06
2019-06-25T00:43:28.965Z,28.04
2019-06-25T00:44:34.763Z,28.03
2019-06-25T00:45:39.951Z,27.97
2019-06-25T00:46:45.451Z,28.01
2019-06-25T00:47:50.496Z,27.95
2019-06-25T00:48:55.996Z,27.95
2019-06-25T00:50:00.978Z,27.96
2019-06-25T00:51:06.520Z,27.96
2019-06-25T00:52:11.724Z,27.95
2019-06-25T00:53:17.286Z,27.94
2019-06-25T00:54:22.380Z,27.92
2019-06-25T00:55:27.961Z,27.92
2019-06-25T00:56:33.035Z,27.92
2019-06-25T00:57:38.709Z,27.90
2019-06-25T00:58:43.619Z,27.89
2019-06-25T00:59:49.143Z,27.85
2019-06-25T01:00:54.186Z,27.81
2019-06-25T01:02:06.780Z,27.77
2019-06-25T01:03:20.327Z,27.85
2019-06-25T01:04:25.924Z,27.83
2019-06-25T01:05:31.193Z,27.77
2019-06-25T01:06:37.055Z,27.78
2019-06-25T01:07:42.037Z,27.79
2019-06-25T01:08:47.563Z,27.79
2019-06-25T01:09:52.735Z,27.72
2019-06-25T01:10:58.356Z,27.72
2019-06-25T01:12:03.281Z,27.73
2019-06-25T01:13:08.851Z,27.72
2019-06-25T01:14:13.857Z,27.72
2019-06-25T01:15:20.036Z,27.70
2019-06-25T01:16:25.035Z,27.70
2019-06-25T01:17:31.162Z,27.64
2019-06-25T01:18:36.417Z,27.68
2019-06-25T01:19:41.999Z,27.66
2019-06-25T01:20:47.235Z,27.64
2019-06-25T01:21:52.840Z,27.64
2019-06-25T01:22:57.775Z,27.64
2019-06-25T01:24:03.284Z,27.62
2019-06-25T01:25:08.424Z,27.61
2019-06-25T01:26:14.089Z,27.61
2019-06-25T01:27:19.156Z,27.53
2019-06-25T01:28:24.769Z,27.53
2019-06-25T01:29:29.704Z,27.57
2019-06-25T01:30:35.278Z,27.56
2019-06-25T01:31:40.193Z,27.55
2019-06-25T01:32:45.743Z,27.55
2019-06-25T01:33:50.922Z,27.53
2019-06-25T01:34:56.516Z,27.53
2019-06-25T01:36:01.800Z,27.54
2019-06-25T01:37:07.497Z,27.51
2019-06-25T01:38:12.784Z,27.51
2019-06-25T01:39:18.305Z,27.50
2019-06-25T01:40:23.309Z,27.50
2019-06-25T01:41:29.032Z,27.50
2019-06-25T01:42:34.038Z,27.49
2019-06-25T01:43:39.837Z,27.48
2019-06-25T01:44:44.827Z,27.47
2019-06-25T01:45:50.435Z,27.47
2019-06-25T01:46:55.683Z,27.47
2019-06-25T01:48:01.297Z,27.45
2019-06-25T01:49:06.222Z,27.45
2019-06-25T01:50:13.207Z,27.42
2019-06-25T01:51:18.096Z,27.39
2019-06-25T01:52:23.726Z,27.39
2019-06-25T01:53:29.186Z,27.39
2019-06-25T01:54:34.741Z,27.40
2019-06-25T01:55:40.041Z,27.43
2019-06-25T01:56:45.602Z,27.42
2019-06-25T01:57:50.525Z,27.42
2019-06-25T01:58:56.053Z,27.42
2019-06-25T02:00:01.085Z,27.41
2019-06-25T02:01:06.683Z,27.41
2019-06-25T02:02:11.929Z,27.35
2019-06-25T02:03:17.566Z,27.39
2019-06-25T02:04:22.495Z,27.39
2019-06-25T02:05:28.122Z,27.38
2019-06-25T02:06:33.112Z,27.38
2019-06-25T02:07:38.761Z,27.36
2019-06-25T02:08:43.769Z,27.35
2019-06-25T02:09:49.646Z,27.35
2019-06-25T02:10:54.554Z,27.35
2019-06-25T02:12:00.060Z,27.33
2019-06-25T02:13:05.167Z,27.32
2019-06-25T02:14:10.980Z,27.32
2019-06-25T02:15:16.309Z,27.31
2019-06-25T02:16:21.939Z,27.29
2019-06-25T02:17:26.942Z,27.29
2019-06-25T02:18:32.564Z,27.28
2019-06-25T02:19:37.556Z,27.27
2019-06-25T02:20:43.170Z,27.24
2019-06-25T02:21:48.295Z,27.24
2019-06-25T02:22:53.963Z,27.23
2019-06-25T02:23:59.299Z,27.23
2019-06-25T02:25:04.958Z,27.20
2019-06-25T02:26:09.913Z,27.15
2019-06-25T02:27:15.748Z,27.14
2019-06-25T02:28:20.687Z,27.14
2019-06-25T02:29:26.209Z,27.17
2019-06-25T02:30:31.289Z,27.15
2019-06-25T02:31:37.113Z,27.15
2019-06-25T02:32:42.161Z,27.15
2019-06-25T02:33:47.799Z,27.13
2019-06-25T02:34:52.994Z,27.11
2019-06-25T02:35:58.906Z,27.11
2019-06-25T02:37:03.815Z,27.10
2019-06-25T02:38:09.409Z,27.10
2019-06-25T02:39:14.728Z,27.05
2019-06-25T02:40:20.617Z,27.07
2019-06-25T02:41:25.847Z,27.07
2019-06-25T02:42:33.528Z,27.05
2019-06-25T02:43:42.610Z,27.05
2019-06-25T02:44:45.477Z,27.03
2019-06-25T02:45:50.559Z,27.03
2019-06-25T02:46:56.432Z,26.96
2019-06-25T02:48:01.343Z,27.01
2019-06-25T02:49:07.177Z,26.99
2019-06-25T02:50:12.809Z,26.99
2019-06-25T02:51:18.418Z,26.98
2019-06-25T02:52:23.472Z,26.93
2019-06-25T02:53:29.006Z,26.97
2019-06-25T02:54:34.023Z,26.91
2019-06-25T02:55:39.556Z,26.91
2019-06-25T02:56:44.898Z,26.93
2019-06-25T02:57:50.417Z,26.93
2019-06-25T02:58:55.420Z,26.89
2019-06-25T03:00:01.065Z,26.90
2019-06-25T03:01:22.529Z,26.90
2019-06-25T03:02:13.307Z,26.89
2019-06-25T03:03:18.627Z,26.86
2019-06-25T03:04:24.225Z,26.86
2019-06-25T03:05:29.282Z,26.86
2019-06-25T03:06:34.913Z,26.86
2019-06-25T03:07:39.988Z,26.84
2019-06-25T03:08:45.723Z,26.82
2019-06-25T03:09:50.711Z,26.82
2019-06-25T03:10:56.375Z,26.82
2019-06-25T03:12:01.376Z,26.81
2019-06-25T03:13:06.877Z,26.81
2019-06-25T03:14:12.088Z,26.79
2019-06-25T03:15:17.668Z,26.77
2019-06-25T03:16:22.862Z,26.78
2019-06-25T03:17:28.432Z,26.76
2019-06-25T03:18:33.520Z,26.75
2019-06-25T03:19:39.651Z,26.69
2019-06-25T03:20:45.910Z,26.72
2019-06-25T03:21:51.788Z,26.67
2019-06-25T03:22:56.798Z,26.67
2019-06-25T03:24:02.489Z,26.68
2019-06-25T03:25:08.141Z,26.68
2019-06-25T03:26:13.777Z,26.68
2019-06-25T03:27:18.747Z,26.67
2019-06-25T03:28:24.330Z,26.65
2019-06-25T03:29:33.464Z,26.65
2019-06-25T03:30:37.263Z,26.65
2019-06-25T03:32:04.490Z,26.64
2019-06-25T03:32:52.068Z,26.62
2019-06-25T03:33:57.088Z,26.58
2019-06-25T03:35:02.592Z,26.61
2019-06-25T03:36:07.674Z,26.61
2019-06-25T03:37:13.487Z,26.59
2019-06-25T03:38:18.388Z,26.59
2019-06-25T03:39:24.329Z,26.59
2019-06-25T03:40:29.262Z,26.58
2019-06-25T03:41:34.994Z,26.58
2019-06-25T03:42:40.148Z,26.58
2019-06-25T03:43:45.755Z,26.57
2019-06-25T03:44:51.036Z,26.56
2019-06-25T03:45:57.175Z,26.56
2019-06-25T03:47:02.647Z,26.56
2019-06-25T03:48:08.303Z,26.55
2019-06-25T03:49:13.489Z,26.55
2019-06-25T03:50:19.512Z,26.54
2019-06-25T03:51:24.808Z,26.55
2019-06-25T03:52:30.524Z,26.56
2019-06-25T03:53:35.528Z,26.55
2019-06-25T03:54:41.085Z,26.55
2019-06-25T03:55:46.113Z,26.55
2019-06-25T03:56:51.676Z,26.55
2019-06-25T03:57:56.675Z,26.55
2019-06-25T03:59:02.618Z,26.55
2019-06-25T04:00:08.285Z,26.55
2019-06-25T04:01:14.161Z,26.55
2019-06-25T04:02:19.218Z,26.55
2019-06-25T04:03:24.879Z,26.56
2019-06-25T04:04:29.916Z,26.55
2019-06-25T04:05:35.673Z,26.58
2019-06-25T04:06:41.037Z,26.58
2019-06-25T04:07:46.664Z,26.59
2019-06-25T04:08:51.649Z,26.60
2019-06-25T04:09:57.159Z,26.63
2019-06-25T04:11:02.292Z,26.66
2019-06-25T04:12:07.947Z,26.66
2019-06-25T04:13:12.978Z,26.66
2019-06-25T04:14:18.767Z,26.63
2019-06-25T04:15:24.015Z,26.68
2019-06-25T04:16:30.088Z,26.68
2019-06-25T04:17:35.111Z,26.65
2019-06-25T04:18:45.386Z,26.65
2019-06-25T04:19:49.301Z,26.71
2019-06-25T04:20:55.042Z,26.71
2019-06-25T04:22:00.267Z,26.71
2019-06-25T04:23:05.977Z,26.72
2019-06-25T04:24:11.339Z,26.72
2019-06-25T04:25:17.478Z,26.72
2019-06-25T04:26:22.512Z,26.72
2019-06-25T04:27:28.165Z,26.72
2019-06-25T04:28:33.214Z,26.68
2019-06-25T04:29:38.817Z,26.74
2019-06-25T04:30:46.834Z,26.64
2019-06-25T04:31:51.309Z,26.73
2019-06-25T04:32:56.245Z,26.72
2019-06-25T04:34:01.874Z,26.72
2019-06-25T04:35:07.396Z,26.67
2019-06-25T04:36:13.357Z,26.67
2019-06-25T04:37:18.551Z,26.65
2019-06-25T04:38:24.159Z,26.65
2019-06-25T04:39:29.233Z,26.71
2019-06-25T04:40:34.789Z,26.71
2019-06-25T04:41:39.825Z,26.71
2019-06-25T04:42:45.522Z,26.72
2019-06-25T04:43:50.536Z,26.67
2019-06-25T04:44:56.097Z,26.73
2019-06-25T04:46:01.084Z,26.70
2019-06-25T04:47:07.085Z,26.76
2019-06-25T04:48:12.097Z,26.76
2019-06-25T04:49:18.025Z,26.74
2019-06-25T04:50:23.150Z,26.77
2019-06-25T04:51:28.952Z,26.83
2019-06-25T04:52:33.983Z,26.88
2019-06-25T04:53:39.709Z,26.95
2019-06-25T04:54:44.651Z,26.99
2019-06-25T04:55:50.228Z,27.04
2019-06-25T04:56:55.319Z,27.04
2019-06-25T04:58:01.201Z,27.02
2019-06-25T04:59:06.764Z,27.07
2019-06-25T05:00:12.731Z,27.08
2019-06-25T05:01:17.842Z,27.15
2019-06-25T05:02:23.577Z,27.12
2019-06-25T05:03:28.517Z,27.21
2019-06-25T05:04:34.138Z,27.18
2019-06-25T05:05:39.177Z,27.24
2019-06-25T05:06:44.816Z,27.28
2019-06-25T05:07:50.413Z,27.28
2019-06-25T05:08:56.107Z,27.29
2019-06-25T05:10:01.636Z,27.34
2019-06-25T05:11:07.345Z,27.38
2019-06-25T05:12:12.316Z,27.46
2019-06-25T05:13:18.368Z,27.46
2019-06-25T05:14:25.017Z,27.46
2019-06-25T05:15:32.281Z,27.48
2019-06-25T05:16:38.424Z,27.57
2019-06-25T05:17:44.208Z,27.57
2019-06-25T05:18:49.230Z,27.60
2019-06-25T05:19:57.535Z,27.60
2019-06-25T05:21:01.803Z,27.68
2019-06-25T05:22:07.707Z,27.68
2019-06-25T05:23:13.486Z,27.75
2019-06-25T05:24:19.370Z,27.75
2019-06-25T05:25:24.696Z,27.77
2019-06-25T05:26:30.399Z,27.74
2019-06-25T05:27:35.904Z,27.79
2019-06-25T05:28:41.859Z,27.82
2019-06-25T05:29:47.064Z,27.83
2019-06-25T05:30:52.961Z,27.83
2019-06-25T05:31:58.491Z,27.86
2019-06-25T05:33:06.083Z,27.82
2019-06-25T05:34:11.416Z,27.91
2019-06-25T05:35:17.679Z,27.91
2019-06-25T05:36:53.599Z,27.95
2019-06-25T05:37:58.610Z,27.95
2019-06-25T05:39:05.588Z,27.99
2019-06-25T05:40:11.930Z,27.99
2019-06-25T05:41:17.581Z,27.99
2019-06-25T05:42:22.804Z,28.00
2019-06-25T05:43:28.573Z,27.99
2019-06-25T05:44:33.762Z,28.00
2019-06-25T05:45:39.291Z,27.96
2019-06-25T05:46:44.465Z,28.00
2019-06-25T05:47:50.436Z,27.99
2019-06-25T05:48:55.708Z,27.91
2019-06-25T05:50:01.407Z,27.97
2019-06-25T05:51:06.501Z,27.97
2019-06-25T05:52:12.612Z,27.98
2019-06-25T05:53:17.621Z,27.99
2019-06-25T05:54:23.189Z,27.99
2019-06-25T05:55:28.263Z,28.00
2019-06-25T05:56:33.981Z,28.00
2019-06-25T05:57:39.438Z,27.98
2019-06-25T05:58:45.371Z,28.02
2019-06-25T05:59:50.448Z,28.02
2019-06-25T06:00:56.217Z,28.03
2019-06-25T06:02:01.263Z,28.03
2019-06-25T06:03:19.295Z,28.06
2019-06-25T06:04:13.721Z,28.07
2019-06-25T06:05:19.463Z,28.12
2019-06-25T06:06:24.448Z,28.16
2019-06-25T06:07:30.065Z,28.22
2019-06-25T06:08:35.748Z,28.27
2019-06-25T06:09:41.400Z,28.33
2019-06-25T06:10:46.571Z,28.39
2019-06-25T06:11:52.542Z,28.44
2019-06-25T06:12:57.612Z,28.51
2019-06-25T06:14:03.203Z,28.54
2019-06-25T06:15:09.234Z,28.59
2019-06-25T06:16:14.889Z,28.61
2019-06-25T06:17:19.896Z,28.67
2019-06-25T06:18:37.085Z,28.71
2019-06-25T06:19:42.207Z,28.73
2019-06-25T06:20:48.238Z,28.76
2019-06-25T06:21:53.265Z,28.78
2019-06-25T06:22:58.929Z,28.81
2019-06-25T06:24:04.115Z,28.84
2019-06-25T06:25:10.171Z,28.86
2019-06-25T06:26:18.504Z,28.88
2019-06-25T06:27:22.689Z,28.90
2019-06-25T06:28:27.701Z,28.93
2019-06-25T06:29:33.724Z,28.94
2019-06-25T06:30:38.846Z,28.97
2019-06-25T06:31:44.597Z,29.01
2019-06-25T06:32:49.699Z,29.05
2019-06-25T06:33:55.457Z,29.12
2019-06-25T06:35:00.661Z,29.17
2019-06-25T06:36:06.813Z,29.23
2019-06-25T06:37:12.091Z,29.28
2019-06-25T06:38:17.722Z,29.35
2019-06-25T06:39:23.414Z,29.41
2019-06-25T06:40:29.000Z,29.48
2019-06-25T06:41:34.045Z,29.54
2019-06-25T06:42:40.023Z,29.62
2019-06-25T06:43:45.037Z,29.67
2019-06-25T06:44:51.117Z,29.74
2019-06-25T06:45:56.184Z,29.81
2019-06-25T06:47:02.893Z,29.89
2019-06-25T06:48:07.991Z,29.98
2019-06-25T06:49:13.658Z,30.04
2019-06-25T06:50:18.913Z,30.12
2019-06-25T06:51:25.565Z,30.17
2019-06-25T06:52:30.576Z,30.24
2019-06-25T06:53:36.465Z,30.28
2019-06-25T06:54:41.590Z,30.30
2019-06-25T06:55:47.194Z,30.31
2019-06-25T06:56:52.284Z,30.33
2019-06-25T06:57:58.128Z,30.37
2019-06-25T06:59:03.315Z,30.41
2019-06-25T07:00:10.155Z,30.42
2019-06-25T07:01:15.513Z,30.45
2019-06-25T07:02:21.204Z,30.45
2019-06-25T07:03:26.384Z,30.44
2019-06-25T07:04:32.343Z,30.43
2019-06-25T07:05:37.413Z,30.43
2019-06-25T07:06:43.098Z,30.41
2019-06-25T07:07:48.188Z,30.42
2019-06-25T07:08:54.375Z,30.44
2019-06-25T07:09:59.999Z,30.45
2019-06-25T07:11:05.704Z,30.45
2019-06-25T07:12:10.784Z,30.46
2019-06-25T07:13:16.366Z,30.47
2019-06-25T07:14:21.413Z,30.47
2019-06-25T07:15:27.058Z,30.51
2019-06-25T07:16:32.388Z,30.53
2019-06-25T07:17:38.035Z,30.52
2019-06-25T07:18:43.092Z,30.52
2019-06-25T07:19:49.031Z,30.52
2019-06-25T07:20:54.055Z,30.52
2019-06-25T07:22:00.359Z,30.52
2019-06-25T07:23:05.434Z,30.53
2019-06-25T07:24:11.057Z,30.54
2019-06-25T07:25:16.373Z,30.55
2019-06-25T07:26:22.002Z,30.56
2019-06-25T07:27:29.590Z,30.58
2019-06-25T07:28:34.492Z,30.60
2019-06-25T07:29:39.602Z,30.61
2019-06-25T07:30:45.252Z,30.62
2019-06-25T07:31:50.350Z,30.64
2019-06-25T07:32:55.905Z,30.66
2019-06-25T07:34:09.382Z,30.69
2019-06-25T07:35:08.531Z,30.68
2019-06-25T07:36:13.704Z,30.70
2019-06-25T07:37:19.626Z,30.71
2019-06-25T07:38:24.655Z,30.74
2019-06-25T07:39:30.226Z,30.79
2019-06-25T07:40:35.419Z,30.85
2019-06-25T07:41:41.560Z,30.91
2019-06-25T07:42:46.676Z,30.97
2019-06-25T07:43:52.312Z,31.05
2019-06-25T07:44:57.292Z,31.10
2019-06-25T07:46:03.150Z,31.18
2019-06-25T07:47:08.263Z,31.21
2019-06-25T07:48:14.173Z,31.24
2019-06-25T07:49:19.277Z,31.27
2019-06-25T07:50:25.184Z,31.28
2019-06-25T07:51:30.266Z,31.30
2019-06-25T07:54:38.782Z,31.35
2019-06-25T07:56:36.124Z,31.35
2019-06-25T07:57:49.550Z,31.35
2019-06-25T07:59:13.610Z,31.34
2019-06-25T08:02:48.747Z,31.34
2019-06-25T08:04:25.034Z,31.35
2019-06-25T08:06:18.754Z,31.38
2019-06-25T08:07:42.909Z,31.45
2019-06-25T08:08:48.745Z,31.54
2019-06-25T08:09:53.779Z,31.59
2019-06-25T08:10:59.371Z,31.64
2019-06-25T08:13:48.946Z,31.73
2019-06-25T08:15:13.700Z,31.79
2019-06-25T08:16:18.820Z,31.79
2019-06-25T08:17:43.977Z,31.82
2019-06-25T08:19:08.080Z,31.83
2019-06-25T08:20:52.885Z,31.87
2019-06-25T08:22:16.919Z,31.90
2019-06-25T08:23:41.065Z,31.90
2019-06-25T08:24:47.263Z,31.91
2019-06-25T08:26:11.279Z,31.91
2019-06-25T08:27:16.504Z,31.91
2019-06-25T08:28:40.961Z,31.90
2019-06-25T08:30:05.132Z,31.91
2019-06-25T08:31:10.809Z,31.90
2019-06-25T08:33:46.701Z,31.86
2019-06-25T08:35:10.824Z,31.83
2019-06-25T08:36:35.554Z,31.80
2019-06-25T08:38:20.135Z,31.77
2019-06-25T08:39:25.476Z,31.74
2019-06-25T08:40:31.371Z,31.69
2019-06-25T08:42:15.991Z,31.66
2019-06-25T08:43:21.016Z,31.64
2019-06-25T08:44:45.030Z,31.63
2019-06-25T08:46:28.544Z,31.63
2019-06-25T08:47:53.319Z,31.63
2019-06-25T08:49:37.892Z,31.63
2019-06-25T08:53:11.640Z,31.60
2019-06-25T08:56:40.812Z,31.53
2019-06-25T08:57:46.495Z,31.49
2019-06-25T08:58:52.059Z,31.46
2019-06-25T08:59:57.301Z,31.45
2019-06-25T09:01:22.320Z,31.45
2019-06-25T09:02:27.346Z,31.45
2019-06-25T09:03:32.967Z,31.46
2019-06-25T09:04:59.526Z,31.46
2019-06-25T09:06:23.224Z,31.48
2019-06-25T09:09:37.087Z,31.54
2019-06-25T09:10:42.973Z,31.55
2019-06-25T09:12:27.995Z,31.56
2019-06-25T09:13:33.270Z,31.57
2019-06-25T09:14:39.151Z,31.58
2019-06-25T09:15:44.227Z,31.57
2019-06-25T09:17:08.749Z,31.58
2019-06-25T09:18:13.807Z,31.59
2019-06-25T09:19:49.838Z,31.60
2019-06-25T09:22:48.517Z,31.59
2019-06-25T09:24:12.752Z,31.58
2019-06-25T09:25:36.926Z,31.56
2019-06-25T09:27:00.979Z,31.57
2019-06-25T09:28:06.283Z,31.58
2019-06-25T09:29:11.798Z,31.58
2019-06-25T09:30:56.408Z,31.58
2019-06-25T09:32:20.905Z,31.59
2019-06-25T09:33:26.561Z,31.62
2019-06-25T09:36:56.042Z,31.67
2019-06-25T09:38:20.411Z,31.68
2019-06-25T09:39:45.145Z,31.69
2019-06-25T09:40:48.666Z,31.68
2019-06-25T09:41:52.791Z,31.71
2019-06-25T09:43:15.313Z,31.73
2019-06-25T09:44:18.866Z,31.75
2019-06-25T09:46:11.575Z,31.75
2019-06-25T09:47:17.418Z,31.77
2019-06-25T09:50:46.886Z,31.78
2019-06-25T09:54:21.212Z,31.78
2019-06-25T09:55:45.407Z,31.77
2019-06-25T09:57:10.468Z,31.77
2019-06-25T09:58:15.541Z,31.76
2019-06-25T09:59:40.279Z,31.78
2019-06-25T10:01:41.137Z,31.79
2019-06-25T10:02:54.214Z,31.80
2019-06-25T10:04:18.939Z,31.82
2019-06-25T10:05:31.427Z,31.82
2019-06-25T10:07:09.298Z,31.85
2019-06-25T10:08:14.332Z,31.87
2019-06-25T10:09:39.109Z,31.91
2019-06-25T10:10:44.861Z,31.95
2019-06-25T10:12:09.949Z,31.99
2019-06-25T10:13:14.925Z,32.00
2019-06-25T10:14:20.523Z,32.03
2019-06-25T10:15:44.686Z,32.08
2019-06-25T10:17:08.665Z,32.13
2019-06-25T10:18:13.743Z,32.20
2019-06-25T10:19:19.700Z,32.25
2019-06-25T10:20:43.782Z,32.29
2019-06-25T10:22:08.291Z,32.30
2019-06-25T10:23:13.986Z,32.33
2019-06-25T10:24:38.176Z,32.34
2019-06-25T10:25:44.195Z,32.34
2019-06-25T10:27:08.311Z,32.33
2019-06-25T10:28:28.455Z,32.32
2019-06-25T10:29:42.476Z,32.33
2019-06-25T10:31:06.486Z,32.34
2019-06-25T10:32:11.975Z,32.32
2019-06-25T10:33:36.013Z,32.34
2019-06-25T10:37:28.529Z,32.34
2019-06-25T10:38:34.209Z,32.33
2019-06-25T10:39:39.225Z,32.34
2019-06-25T10:40:44.756Z,32.35
2019-06-25T10:42:09.039Z,32.36
2019-06-25T10:43:33.058Z,32.37
2019-06-25T10:46:27.632Z,32.40
2019-06-25T10:47:33.553Z,32.40
2019-06-25T10:48:38.706Z,32.40
2019-06-25T10:49:44.246Z,32.42
2019-06-25T10:50:49.205Z,32.42
2019-06-25T10:52:14.289Z,32.44
2019-06-25T10:53:58.007Z,32.45
2019-06-25T10:55:03.468Z,32.48
2019-06-25T10:56:09.199Z,32.51
2019-06-25T10:58:57.490Z,32.58
2019-06-25T11:00:03.434Z,32.62
2019-06-25T11:01:08.385Z,32.63
2019-06-25T11:02:14.208Z,32.63
2019-06-25T11:05:08.438Z,32.66
2019-06-25T11:06:14.410Z,32.66
2019-06-25T11:07:39.242Z,32.67
2019-06-25T11:09:44.663Z,32.69
2019-06-25T11:11:29.610Z,32.73
2019-06-25T11:12:53.817Z,32.75
2019-06-25T11:14:37.257Z,32.75
2019-06-25T11:15:42.564Z,32.74
2019-06-25T11:17:06.949Z,32.77
2019-06-25T11:21:55.405Z,32.79
2019-06-25T11:23:01.043Z,32.88
2019-06-25T11:24:45.663Z,32.92
2019-06-25T11:26:22.867Z,32.96
2019-06-25T11:27:37.135Z,33.03
2019-06-25T11:28:42.765Z,33.07
2019-06-25T11:29:48.332Z,33.07
2019-06-25T11:31:12.523Z,33.08
2019-06-25T11:32:37.778Z,33.09
2019-06-25T11:34:22.762Z,33.14
2019-06-25T11:35:47.298Z,33.19
2019-06-25T11:37:11.955Z,33.26
2019-06-25T11:40:00.402Z,33.34
2019-06-25T11:41:05.543Z,33.40
2019-06-25T11:44:12.777Z,33.51
2019-06-25T11:45:36.992Z,33.57
2019-06-25T11:47:20.707Z,33.63
2019-06-25T11:48:26.320Z,33.65
2019-06-25T11:49:31.343Z,33.64
2019-06-25T11:50:37.358Z,33.64
2019-06-25T11:52:01.681Z,33.62
2019-06-25T11:53:25.940Z,33.61
2019-06-25T11:56:15.016Z,33.61
2019-06-25T11:57:39.009Z,33.61
2019-06-25T11:58:44.131Z,33.62
2019-06-25T12:00:49.899Z,33.62
2019-06-25T12:01:55.193Z,33.64
2019-06-25T12:03:01.909Z,33.68
2019-06-25T12:04:26.006Z,33.70
2019-06-25T12:05:31.558Z,33.71
2019-06-25T12:06:56.230Z,33.71
2019-06-25T12:08:01.563Z,33.72
2019-06-25T12:09:47.024Z,33.72
2019-06-25T12:11:11.168Z,33.71
2019-06-25T12:12:35.460Z,33.71
2019-06-25T12:13:40.485Z,33.72
2019-06-25T12:14:46.105Z,33.75
2019-06-25T12:15:51.022Z,33.77
2019-06-25T12:16:56.961Z,33.78
2019-06-25T12:18:02.297Z,33.82
2019-06-25T12:19:08.167Z,33.85
2019-06-25T12:20:52.757Z,33.89
2019-06-25T12:21:57.784Z,33.91
2019-06-25T12:23:03.364Z,33.93
2019-06-25T12:24:27.490Z,33.93
2019-06-25T12:25:52.346Z,33.93
2019-06-25T12:26:57.444Z,33.94
2019-06-25T12:28:03.211Z,33.96
2019-06-25T12:29:08.178Z,33.97
2019-06-25T12:30:52.846Z,33.99
2019-06-25T12:32:17.223Z,34.00
2019-06-25T12:34:46.891Z,34.03
2019-06-25T12:36:11.659Z,34.04
2019-06-25T12:37:16.700Z,34.03
2019-06-25T12:38:22.201Z,34.03
2019-06-25T12:39:27.205Z,34.03
2019-06-25T12:40:52.003Z,34.03
2019-06-25T12:42:16.261Z,34.05
2019-06-25T12:43:40.271Z,34.07
2019-06-25T12:45:04.327Z,34.11
2019-06-25T12:46:28.380Z,34.13
2019-06-25T12:47:33.754Z,34.20
2019-06-25T12:48:39.287Z,34.29
2019-06-25T12:50:03.489Z,34.34
2019-06-25T12:51:28.581Z,34.40
2019-06-25T12:52:53.043Z,34.47
2019-06-25T12:53:58.635Z,34.51
2019-06-25T12:55:03.831Z,34.53
2019-06-25T12:56:28.546Z,34.56
2019-06-25T12:57:33.568Z,34.58
2019-06-25T12:58:39.160Z,34.61
2019-06-25T12:59:44.242Z,34.64
2019-06-25T13:01:08.938Z,34.68
2019-06-25T13:03:38.442Z,34.79
2019-06-25T13:04:43.544Z,34.86
2019-06-25T13:06:08.290Z,34.92
2019-06-25T13:08:58.209Z,35.00
2019-06-25T13:12:06.960Z,35.02
2019-06-25T13:13:30.984Z,35.01
2019-06-25T13:14:55.148Z,35.00
2019-06-25T13:16:19.220Z,35.02
2019-06-25T13:17:24.243Z,35.03
2019-06-25T13:18:48.941Z,35.05
2019-06-25T13:20:12.976Z,35.06
2019-06-25T13:21:56.388Z,35.07
2019-06-25T13:23:20.438Z,35.11
2019-06-25T13:24:44.679Z,35.12
2019-06-25T13:25:50.304Z,35.15
2019-06-25T13:27:34.913Z,35.18
2019-06-25T13:28:40.085Z,35.20
2019-06-25T13:29:45.789Z,35.21
2019-06-25T13:32:53.029Z,35.23
2019-06-25T13:34:36.470Z,35.28
2019-06-25T13:36:00.635Z,35.32
2019-06-25T13:37:06.289Z,35.38
2019-06-25T13:38:11.335Z,35.44
2019-06-25T13:39:16.992Z,35.45
2019-06-25T13:40:22.438Z,35.46
2019-06-25T13:41:28.073Z,35.48
2019-06-25T13:42:33.136Z,35.49
2019-06-25T13:43:38.737Z,35.52
2019-06-25T13:44:43.790Z,35.54
2019-06-25T13:45:50.098Z,35.57
2019-06-25T13:46:55.803Z,35.62
2019-06-25T13:48:11.368Z,35.68
2019-06-25T13:49:08.162Z,35.71
2019-06-25T13:50:15.367Z,35.74
2019-06-25T13:51:20.611Z,35.77
2019-06-25T13:52:26.359Z,35.79
2019-06-25T13:53:31.645Z,35.82
2019-06-25T13:54:39.823Z,35.86
2019-06-25T13:55:44.092Z,35.88
2019-06-25T13:56:49.787Z,35.91
2019-06-25T13:57:54.841Z,35.96
2019-06-25T13:59:00.473Z,36.01
2019-06-25T14:00:06.857Z,36.08
2019-06-25T14:01:12.431Z,36.15
2019-06-25T14:02:17.529Z,36.22
2019-06-25T14:03:23.196Z,36.26
2019-06-25T14:04:28.255Z,36.30
2019-06-25T14:05:33.790Z,36.33
2019-06-25T14:06:38.961Z,36.35
2019-06-25T14:07:57.885Z,36.35
2019-06-25T14:08:51.697Z,36.34
2019-06-25T14:09:57.537Z,36.33
2019-06-25T14:11:06.008Z,36.31
2019-06-25T14:12:11.640Z,36.29
2019-06-25T14:13:16.551Z,36.26
2019-06-25T14:14:22.460Z,36.23
2019-06-25T14:15:27.545Z,36.22
2019-06-25T14:16:33.173Z,36.19
2019-06-25T14:17:38.117Z,36.18
2019-06-25T14:18:43.707Z,36.18
2019-06-25T14:19:48.778Z,36.19
2019-06-25T14:20:54.357Z,36.19
2019-06-25T14:21:59.291Z,36.17
2019-06-25T14:23:05.286Z,36.16
2019-06-25T14:24:10.291Z,36.16
2019-06-25T14:25:15.954Z,36.16
2019-06-25T14:26:21.273Z,36.16
2019-06-25T14:27:27.361Z,36.16
2019-06-25T14:28:32.289Z,36.18
2019-06-25T14:29:38.192Z,36.21
2019-06-25T14:30:43.656Z,36.24
2019-06-25T14:31:49.539Z,36.25
2019-06-25T14:32:54.555Z,36.26
2019-06-25T14:34:00.188Z,36.26
2019-06-25T14:35:05.612Z,36.27
2019-06-25T14:36:11.147Z,36.28
2019-06-25T14:37:16.581Z,36.29
2019-06-25T14:38:22.267Z,36.27
2019-06-25T14:39:27.283Z,36.27
2019-06-25T14:40:32.816Z,36.27
2019-06-25T14:41:37.888Z,36.27
2019-06-25T14:42:43.442Z,36.29
2019-06-25T14:43:48.710Z,36.29
2019-06-25T14:44:54.380Z,36.28
2019-06-25T14:45:59.383Z,36.27
2019-06-25T14:47:05.366Z,36.26
2019-06-25T14:48:10.315Z,36.27
2019-06-25T14:49:15.988Z,36.26
2019-06-25T14:50:22.802Z,36.26
2019-06-25T14:51:28.412Z,36.26
2019-06-25T14:52:33.550Z,36.27
2019-06-25T14:53:39.224Z,36.28
2019-06-25T14:54:44.489Z,36.27
2019-06-25T14:55:50.091Z,36.27
2019-06-25T14:56:56.760Z,36.28
2019-06-25T14:58:02.784Z,36.28
2019-06-25T14:59:07.822Z,36.30
2019-06-25T15:00:15.149Z,36.30
2019-06-25T15:01:20.107Z,36.32
2019-06-25T15:02:25.934Z,36.31
2019-06-25T15:03:31.172Z,36.29
2019-06-25T15:04:36.775Z,36.28
2019-06-25T15:05:41.976Z,36.27
2019-06-25T15:06:47.996Z,36.26
2019-06-25T15:07:53.083Z,36.26
2019-06-25T15:08:58.551Z,36.25
2019-06-25T15:10:03.727Z,36.26
2019-06-25T15:11:09.497Z,36.27
2019-06-25T15:12:14.659Z,36.30
2019-06-25T15:13:20.406Z,36.32
2019-06-25T15:14:25.842Z,36.35
2019-06-25T15:15:33.371Z,36.37
2019-06-25T15:16:38.375Z,36.40
2019-06-25T15:17:44.069Z,36.42
2019-06-25T15:18:49.206Z,36.43
2019-06-25T15:19:54.819Z,36.42
2019-06-25T15:20:59.745Z,36.41
2019-06-25T15:22:05.476Z,36.43
2019-06-25T15:23:10.517Z,36.45
2019-06-25T15:24:16.141Z,36.46
2019-06-25T15:25:21.189Z,36.48
2019-06-25T15:26:26.919Z,36.51
2019-06-25T15:27:32.048Z,36.52
2019-06-25T15:28:37.799Z,36.52
2019-06-25T15:29:42.717Z,36.53
2019-06-25T15:30:48.980Z,36.52
2019-06-25T15:31:53.903Z,36.51
2019-06-25T15:32:59.403Z,36.49
2019-06-25T15:34:04.748Z,36.48
2019-06-25T15:35:10.549Z,36.49
2019-06-25T15:36:15.606Z,36.50
2019-06-25T15:37:21.858Z,36.52
2019-06-25T15:38:26.971Z,36.53
2019-06-25T15:39:32.711Z,36.54
2019-06-25T15:40:37.714Z,36.55